sensor_id;sensor_type;location;lat;lon;timestamp;P1;durP1;ratioP1;P2;durP2;ratioP2
21905;SDS011;11117;48.644;9.006;2023-01-25T02:28:34;44.00;;;21.27;;
21905;SDS011;11117;48.644;9.006;2023-01-25T02:45:57;43.57;;;19.57;;
21905;SDS011;11117;48.644;9.006;2023-01-25T03:01:43;45.57;;;20.67;;
21905;SDS011;11117;48.644;9.006;2023-01-25T03:04:55;49.67;;;20.40;;
21905;SDS011;11117;48.644;9.006;2023-01-25T03:07:20;51.07;;;21.83;;
21905;SDS011;11117;48.644;9.006;2023-01-25T03:09:52;51.93;;;21.20;;
21905;SDS011;11117;48.644;9.006;2023-01-25T03:13:04;48.00;;;21.07;;
21905;SDS011;11117;48.644;9.006;2023-01-25T03:18:51;52.60;;;21.83;;
21905;SDS011;11117;48.644;9.006;2023-01-25T03:21:44;49.03;;;21.27;;
21905;SDS011;11117;48.644;9.006;2023-01-25T03:27:30;48.73;;;21.00;;
21905;SDS011;11117;48.644;9.006;2023-01-25T04:19:33;49.00;;;21.57;;
21905;SDS011;11117;48.644;9.006;2023-01-25T04:21:58;45.83;;;20.13;;
21905;SDS011;11117;48.644;9.006;2023-01-25T04:24:24;50.00;;;20.47;;
21905;SDS011;11117;48.644;9.006;2023-01-25T04:26:49;45.87;;;20.80;;
21905;SDS011;11117;48.644;9.006;2023-01-25T04:29:15;44.20;;;20.17;;
21905;SDS011;11117;48.644;9.006;2023-01-25T04:31:40;43.87;;;20.37;;
21905;SDS011;11117;48.644;9.006;2023-01-25T04:34:06;47.30;;;20.03;;
21905;SDS011;11117;48.644;9.006;2023-01-25T04:36:31;43.67;;;20.30;;
21905;SDS011;11117;48.644;9.006;2023-01-25T04:38:57;46.50;;;20.57;;
21905;SDS011;11117;48.644;9.006;2023-01-25T04:41:22;43.77;;;20.63;;
21905;SDS011;11117;48.644;9.006;2023-01-25T04:43:48;47.97;;;21.67;;
21905;SDS011;11117;48.644;9.006;2023-01-25T04:46:13;44.70;;;19.77;;
21905;SDS011;11117;48.644;9.006;2023-01-25T04:48:39;50.93;;;21.30;;
21905;SDS011;11117;48.644;9.006;2023-01-25T04:51:04;42.97;;;19.83;;
21905;SDS011;11117;48.644;9.006;2023-01-25T04:53:30;46.67;;;20.17;;
21905;SDS011;11117;48.644;9.006;2023-01-25T04:55:55;43.93;;;19.50;;
21905;SDS011;11117;48.644;9.006;2023-01-25T04:58:21;49.57;;;20.50;;
21905;SDS011;11117;48.644;9.006;2023-01-25T05:00:46;38.27;;;18.30;;
21905;SDS011;11117;48.644;9.006;2023-01-25T05:03:12;44.80;;;20.03;;
21905;SDS011;11117;48.644;9.006;2023-01-25T05:05:45;40.30;;;18.73;;
21905;SDS011;11117;48.644;9.006;2023-01-25T05:08:11;43.20;;;20.53;;
21905;SDS011;11117;48.644;9.006;2023-01-25T05:10:37;41.43;;;19.50;;
21905;SDS011;11117;48.644;9.006;2023-01-25T05:13:02;40.93;;;18.93;;
21905;SDS011;11117;48.644;9.006;2023-01-25T05:15:28;41.13;;;18.90;;
21905;SDS011;11117;48.644;9.006;2023-01-25T05:17:53;42.53;;;18.70;;
21905;SDS011;11117;48.644;9.006;2023-01-25T05:20:19;42.97;;;20.10;;
21905;SDS011;11117;48.644;9.006;2023-01-25T05:22:44;40.50;;;19.20;;
21905;SDS011;11117;48.644;9.006;2023-01-25T05:25:10;46.50;;;18.33;;
21905;SDS011;11117;48.644;9.006;2023-01-25T05:27:35;40.23;;;17.87;;
21905;SDS011;11117;48.644;9.006;2023-01-25T05:30:01;43.10;;;18.73;;
21905;SDS011;11117;48.644;9.006;2023-01-25T05:32:26;44.87;;;19.63;;
21905;SDS011;11117;48.644;9.006;2023-01-25T05:34:52;39.53;;;18.30;;
21905;SDS011;11117;48.644;9.006;2023-01-25T05:37:18;37.90;;;16.87;;
21905;SDS011;11117;48.644;9.006;2023-01-25T05:39:44;38.00;;;16.77;;
21905;SDS011;11117;48.644;9.006;2023-01-25T05:42:11;36.03;;;17.00;;
21905;SDS011;11117;48.644;9.006;2023-01-25T05:44:38;39.77;;;18.60;;
21905;SDS011;11117;48.644;9.006;2023-01-25T05:47:04;39.33;;;18.93;;
21905;SDS011;11117;48.644;9.006;2023-01-25T05:49:29;40.53;;;23.13;;
21905;SDS011;11117;48.644;9.006;2023-01-25T05:51:55;34.73;;;18.03;;
21905;SDS011;11117;48.644;9.006;2023-01-25T05:54:21;38.20;;;17.80;;
21905;SDS011;11117;48.644;9.006;2023-01-25T05:56:47;35.73;;;16.73;;
21905;SDS011;11117;48.644;9.006;2023-01-25T05:59:13;32.43;;;16.40;;
21905;SDS011;11117;48.644;9.006;2023-01-25T06:01:39;35.60;;;16.77;;
21905;SDS011;11117;48.644;9.006;2023-01-25T06:04:04;38.20;;;16.87;;
21905;SDS011;11117;48.644;9.006;2023-01-25T06:06:30;36.70;;;17.23;;
21905;SDS011;11117;48.644;9.006;2023-01-25T06:08:56;34.33;;;16.77;;
21905;SDS011;11117;48.644;9.006;2023-01-25T06:11:22;38.00;;;17.23;;
21905;SDS011;11117;48.644;9.006;2023-01-25T06:13:48;38.27;;;18.43;;
21905;SDS011;11117;48.644;9.006;2023-01-25T06:16:15;37.70;;;18.10;;
21905;SDS011;11117;48.644;9.006;2023-01-25T06:18:41;35.37;;;16.77;;
21905;SDS011;11117;48.644;9.006;2023-01-25T06:21:08;54.93;;;25.97;;
21905;SDS011;11117;48.644;9.006;2023-01-25T06:23:34;41.37;;;19.67;;
21905;SDS011;11117;48.644;9.006;2023-01-25T06:26:00;42.07;;;19.53;;
21905;SDS011;11117;48.644;9.006;2023-01-25T06:28:28;39.10;;;18.83;;
21905;SDS011;11117;48.644;9.006;2023-01-25T06:30:54;44.83;;;23.40;;
21905;SDS011;11117;48.644;9.006;2023-01-25T06:33:20;32.77;;;16.87;;
21905;SDS011;11117;48.644;9.006;2023-01-25T06:35:45;32.67;;;16.63;;
21905;SDS011;11117;48.644;9.006;2023-01-25T06:38:11;35.17;;;17.93;;
21905;SDS011;11117;48.644;9.006;2023-01-25T06:40:36;30.10;;;16.20;;
21905;SDS011;11117;48.644;9.006;2023-01-25T06:43:09;30.43;;;15.60;;
21905;SDS011;11117;48.644;9.006;2023-01-25T06:45:36;32.93;;;16.00;;
21905;SDS011;11117;48.644;9.006;2023-01-25T06:48:02;31.70;;;16.37;;
21905;SDS011;11117;48.644;9.006;2023-01-25T06:50:28;37.17;;;19.27;;
21905;SDS011;11117;48.644;9.006;2023-01-25T06:52:54;35.27;;;18.97;;
21905;SDS011;11117;48.644;9.006;2023-01-25T06:55:19;35.87;;;19.30;;
21905;SDS011;11117;48.644;9.006;2023-01-25T06:57:45;31.20;;;15.63;;
21905;SDS011;11117;48.644;9.006;2023-01-25T07:00:12;31.67;;;15.33;;
21905;SDS011;11117;48.644;9.006;2023-01-25T07:02:38;29.30;;;15.20;;
21905;SDS011;11117;48.644;9.006;2023-01-25T07:05:04;40.00;;;20.27;;
21905;SDS011;11117;48.644;9.006;2023-01-25T07:07:29;34.50;;;16.70;;
21905;SDS011;11117;48.644;9.006;2023-01-25T07:09:55;33.87;;;17.30;;
21905;SDS011;11117;48.644;9.006;2023-01-25T07:12:21;35.50;;;18.33;;
21905;SDS011;11117;48.644;9.006;2023-01-25T07:14:46;38.00;;;19.27;;
21905;SDS011;11117;48.644;9.006;2023-01-25T07:17:12;38.80;;;19.20;;
21905;SDS011;11117;48.644;9.006;2023-01-25T07:19:37;40.07;;;19.10;;
21905;SDS011;11117;48.644;9.006;2023-01-25T07:22:03;35.43;;;17.87;;
21905;SDS011;11117;48.644;9.006;2023-01-25T07:24:28;39.47;;;19.00;;
21905;SDS011;11117;48.644;9.006;2023-01-25T07:26:54;31.27;;;16.73;;
21905;SDS011;11117;48.644;9.006;2023-01-25T07:29:19;41.17;;;21.67;;
21905;SDS011;11117;48.644;9.006;2023-01-25T07:31:45;48.23;;;25.40;;
21905;SDS011;11117;48.644;9.006;2023-01-25T07:34:11;39.07;;;21.47;;
21905;SDS011;11117;48.644;9.006;2023-01-25T07:36:37;37.37;;;18.87;;
21905;SDS011;11117;48.644;9.006;2023-01-25T07:39:03;38.17;;;19.80;;
21905;SDS011;11117;48.644;9.006;2023-01-25T07:41:29;41.77;;;21.07;;
21905;SDS011;11117;48.644;9.006;2023-01-25T07:43:55;37.20;;;19.43;;
21905;SDS011;11117;48.644;9.006;2023-01-25T07:46:20;36.57;;;18.97;;
21905;SDS011;11117;48.644;9.006;2023-01-25T07:48:47;34.50;;;17.70;;
21905;SDS011;11117;48.644;9.006;2023-01-25T07:51:14;35.63;;;17.67;;
21905;SDS011;11117;48.644;9.006;2023-01-25T07:53:42;36.53;;;19.13;;
21905;SDS011;11117;48.644;9.006;2023-01-25T07:56:08;32.63;;;17.43;;
21905;SDS011;11117;48.644;9.006;2023-01-25T07:58:35;32.03;;;17.03;;
21905;SDS011;11117;48.644;9.006;2023-01-25T08:01:07;37.80;;;17.30;;
21905;SDS011;11117;48.644;9.006;2023-01-25T08:03:34;37.37;;;20.77;;
21905;SDS011;11117;48.644;9.006;2023-01-25T08:06:00;32.37;;;16.33;;
21905;SDS011;11117;48.644;9.006;2023-01-25T08:08:26;33.47;;;16.60;;
21905;SDS011;11117;48.644;9.006;2023-01-25T08:10:51;36.20;;;16.33;;
21905;SDS011;11117;48.644;9.006;2023-01-25T08:13:17;33.10;;;17.43;;
21905;SDS011;11117;48.644;9.006;2023-01-25T08:15:42;32.00;;;16.77;;
21905;SDS011;11117;48.644;9.006;2023-01-25T08:18:08;33.43;;;17.77;;
21905;SDS011;11117;48.644;9.006;2023-01-25T08:20:34;37.40;;;17.53;;
21905;SDS011;11117;48.644;9.006;2023-01-25T08:22:59;31.47;;;16.27;;
21905;SDS011;11117;48.644;9.006;2023-01-25T08:25:25;37.57;;;18.17;;
21905;SDS011;11117;48.644;9.006;2023-01-25T08:27:51;33.17;;;18.73;;
21905;SDS011;11117;48.644;9.006;2023-01-25T08:30:17;33.20;;;16.57;;
21905;SDS011;11117;48.644;9.006;2023-01-25T08:32:43;31.77;;;16.23;;
21905;SDS011;11117;48.644;9.006;2023-01-25T08:35:08;34.40;;;18.03;;
21905;SDS011;11117;48.644;9.006;2023-01-25T08:37:34;33.53;;;16.97;;
21905;SDS011;11117;48.644;9.006;2023-01-25T08:40:00;32.07;;;17.10;;
21905;SDS011;11117;48.644;9.006;2023-01-25T08:42:25;34.10;;;18.03;;
21905;SDS011;11117;48.644;9.006;2023-01-25T08:44:51;31.73;;;16.97;;
21905;SDS011;11117;48.644;9.006;2023-01-25T08:47:16;32.87;;;18.17;;
21905;SDS011;11117;48.644;9.006;2023-01-25T08:49:42;31.13;;;17.17;;
21905;SDS011;11117;48.644;9.006;2023-01-25T08:52:07;28.17;;;14.73;;
21905;SDS011;11117;48.644;9.006;2023-01-25T08:54:33;29.57;;;14.97;;
21905;SDS011;11117;48.644;9.006;2023-01-25T08:56:59;28.07;;;15.30;;
21905;SDS011;11117;48.644;9.006;2023-01-25T08:59:25;32.10;;;16.10;;
21905;SDS011;11117;48.644;9.006;2023-01-25T09:01:51;27.90;;;15.13;;
21905;SDS011;11117;48.644;9.006;2023-01-25T09:04:16;30.30;;;15.27;;
21905;SDS011;11117;48.644;9.006;2023-01-25T09:06:42;32.37;;;16.37;;
21905;SDS011;11117;48.644;9.006;2023-01-25T09:09:08;29.93;;;15.70;;
21905;SDS011;11117;48.644;9.006;2023-01-25T09:11:35;28.30;;;15.33;;
21905;SDS011;11117;48.644;9.006;2023-01-25T09:14:00;34.03;;;16.60;;
21905;SDS011;11117;48.644;9.006;2023-01-25T09:16:29;29.93;;;15.33;;
21905;SDS011;11117;48.644;9.006;2023-01-25T09:18:58;31.73;;;15.63;;
21905;SDS011;11117;48.644;9.006;2023-01-25T09:21:24;30.50;;;15.57;;
21905;SDS011;11117;48.644;9.006;2023-01-25T09:23:50;33.57;;;16.80;;
21905;SDS011;11117;48.644;9.006;2023-01-25T09:26:17;33.97;;;17.23;;
21905;SDS011;11117;48.644;9.006;2023-01-25T09:28:46;30.13;;;16.03;;
21905;SDS011;11117;48.644;9.006;2023-01-25T09:31:13;32.07;;;16.77;;
21905;SDS011;11117;48.644;9.006;2023-01-25T09:33:39;33.90;;;18.13;;
21905;SDS011;11117;48.644;9.006;2023-01-25T09:36:05;32.73;;;16.83;;
21905;SDS011;11117;48.644;9.006;2023-01-25T09:38:32;35.80;;;16.80;;
21905;SDS011;11117;48.644;9.006;2023-01-25T09:49:19;32.70;;;17.63;;
21905;SDS011;11117;48.644;9.006;2023-01-25T09:54:36;35.83;;;19.90;;
21905;SDS011;11117;48.644;9.006;2023-01-25T09:57:12;37.63;;;19.23;;
21905;SDS011;11117;48.644;9.006;2023-01-25T09:59:44;35.83;;;17.87;;
21905;SDS011;11117;48.644;9.006;2023-01-25T10:05:09;36.70;;;17.97;;
21905;SDS011;11117;48.644;9.006;2023-01-25T10:07:43;33.30;;;17.27;;
21905;SDS011;11117;48.644;9.006;2023-01-25T10:10:28;35.90;;;18.07;;
21905;SDS011;11117;48.644;9.006;2023-01-25T10:13:09;37.13;;;18.03;;
21905;SDS011;11117;48.644;9.006;2023-01-25T10:15:38;40.57;;;18.67;;
21905;SDS011;11117;48.644;9.006;2023-01-25T10:20:34;36.17;;;18.10;;
21905;SDS011;11117;48.644;9.006;2023-01-25T10:26:12;41.23;;;21.53;;
21905;SDS011;11117;48.644;9.006;2023-01-25T10:28:55;39.80;;;19.43;;
21905;SDS011;11117;48.644;9.006;2023-01-25T10:34:17;40.63;;;18.73;;
21905;SDS011;11117;48.644;9.006;2023-01-25T10:36:55;37.10;;;18.33;;
21905;SDS011;11117;48.644;9.006;2023-01-25T10:39:25;39.00;;;18.50;;
21905;SDS011;11117;48.644;9.006;2023-01-25T10:41:52;34.17;;;17.90;;
21905;SDS011;11117;48.644;9.006;2023-01-25T10:44:26;36.23;;;18.53;;
21905;SDS011;11117;48.644;9.006;2023-01-25T10:49:25;36.47;;;17.13;;
21905;SDS011;11117;48.644;9.006;2023-01-25T10:52:11;36.37;;;18.07;;
21905;SDS011;11117;48.644;9.006;2023-01-25T10:54:45;42.17;;;19.43;;
21905;SDS011;11117;48.644;9.006;2023-01-25T10:57:18;25.33;;;11.43;;
21905;SDS011;11117;48.644;9.006;2023-01-25T10:59:47;37.17;;;19.63;;
21905;SDS011;11117;48.644;9.006;2023-01-25T11:07:42;40.77;;;18.93;;
21905;SDS011;11117;48.644;9.006;2023-01-25T11:13:10;37.80;;;18.67;;
21905;SDS011;11117;48.644;9.006;2023-01-25T11:15:41;36.80;;;18.47;;
21905;SDS011;11117;48.644;9.006;2023-01-25T11:18:11;39.40;;;19.17;;
21905;SDS011;11117;48.644;9.006;2023-01-25T11:20:41;30.50;;;13.23;;
21905;SDS011;11117;48.644;9.006;2023-01-25T11:26:15;33.33;;;15.37;;
21905;SDS011;11117;48.644;9.006;2023-01-25T11:28:43;30.47;;;11.90;;
21905;SDS011;11117;48.644;9.006;2023-01-25T11:31:18;30.40;;;13.27;;
21905;SDS011;11117;48.644;9.006;2023-01-25T11:33:45;39.63;;;19.17;;
21905;SDS011;11117;48.644;9.006;2023-01-25T11:38:46;38.87;;;18.50;;
21905;SDS011;11117;48.644;9.006;2023-01-25T11:41:18;34.73;;;18.20;;
21905;SDS011;11117;48.644;9.006;2023-01-25T11:47:17;33.87;;;17.13;;
21905;SDS011;11117;48.644;9.006;2023-01-25T11:52:52;34.53;;;17.03;;
21905;SDS011;11117;48.644;9.006;2023-01-25T11:55:44;33.97;;;17.13;;
21905;SDS011;11117;48.644;9.006;2023-01-25T12:03:49;31.57;;;15.67;;
21905;SDS011;11117;48.644;9.006;2023-01-25T12:09:10;35.47;;;17.80;;
21905;SDS011;11117;48.644;9.006;2023-01-25T12:28:32;33.93;;;17.40;;
21905;SDS011;11117;48.644;9.006;2023-01-25T12:34:11;37.20;;;17.80;;
21905;SDS011;11117;48.644;9.006;2023-01-25T12:36:43;35.53;;;18.00;;
21905;SDS011;11117;48.644;9.006;2023-01-25T12:39:12;33.50;;;17.63;;
21905;SDS011;11117;48.644;9.006;2023-01-25T12:47:00;36.70;;;18.27;;
21905;SDS011;11117;48.644;9.006;2023-01-25T12:49:39;35.43;;;17.80;;
21905;SDS011;11117;48.644;9.006;2023-01-25T12:52:22;34.47;;;17.07;;
21905;SDS011;11117;48.644;9.006;2023-01-25T12:55:03;31.77;;;16.63;;
21905;SDS011;11117;48.644;9.006;2023-01-25T13:03:15;35.70;;;18.97;;
21905;SDS011;11117;48.644;9.006;2023-01-25T13:13:45;38.83;;;19.80;;
21905;SDS011;11117;48.644;9.006;2023-01-25T13:18:55;43.90;;;20.13;;
21905;SDS011;11117;48.644;9.006;2023-01-25T13:21:38;39.43;;;21.10;;
21905;SDS011;11117;48.644;9.006;2023-01-25T13:24:14;37.13;;;19.00;;
21905;SDS011;11117;48.644;9.006;2023-01-25T13:26:46;37.10;;;18.03;;
21905;SDS011;11117;48.644;9.006;2023-01-25T13:29:50;44.73;;;19.33;;
21905;SDS011;11117;48.644;9.006;2023-01-25T13:32:51;36.83;;;19.43;;
21905;SDS011;11117;48.644;9.006;2023-01-25T13:34:57;39.20;;;19.73;;
21905;SDS011;11117;48.644;9.006;2023-01-25T13:37:28;39.80;;;20.43;;
21905;SDS011;11117;48.644;9.006;2023-01-25T13:40:02;37.80;;;19.87;;
21905;SDS011;11117;48.644;9.006;2023-01-25T13:42:30;40.93;;;20.60;;
21905;SDS011;11117;48.644;9.006;2023-01-25T13:45:02;40.13;;;19.90;;
21905;SDS011;11117;48.644;9.006;2023-01-25T13:47:41;36.53;;;20.07;;
21905;SDS011;11117;48.644;9.006;2023-01-25T13:50:17;39.40;;;20.30;;
21905;SDS011;11117;48.644;9.006;2023-01-25T13:53:37;39.17;;;20.73;;
21905;SDS011;11117;48.644;9.006;2023-01-25T13:55:42;38.77;;;20.00;;
21905;SDS011;11117;48.644;9.006;2023-01-25T14:01:13;41.60;;;19.00;;
21905;SDS011;11117;48.644;9.006;2023-01-25T14:03:54;37.60;;;18.93;;
21905;SDS011;11117;48.644;9.006;2023-01-25T14:06:23;35.87;;;18.47;;
21905;SDS011;11117;48.644;9.006;2023-01-25T14:08:54;36.20;;;19.13;;
21905;SDS011;11117;48.644;9.006;2023-01-25T14:11:24;37.37;;;19.10;;
21905;SDS011;11117;48.644;9.006;2023-01-25T14:13:57;36.07;;;19.70;;
21905;SDS011;11117;48.644;9.006;2023-01-25T14:16:24;38.43;;;19.03;;
21905;SDS011;11117;48.644;9.006;2023-01-25T14:18:50;41.60;;;20.60;;
21905;SDS011;11117;48.644;9.006;2023-01-25T14:21:17;39.67;;;20.13;;
21905;SDS011;11117;48.644;9.006;2023-01-25T14:23:44;41.73;;;22.13;;
21905;SDS011;11117;48.644;9.006;2023-01-25T14:26:21;42.30;;;21.40;;
21905;SDS011;11117;48.644;9.006;2023-01-25T14:28:55;40.37;;;21.03;;
21905;SDS011;11117;48.644;9.006;2023-01-25T14:31:23;44.23;;;20.90;;
21905;SDS011;11117;48.644;9.006;2023-01-25T14:33:51;40.33;;;21.27;;
21905;SDS011;11117;48.644;9.006;2023-01-25T14:36:18;39.23;;;20.37;;
21905;SDS011;11117;48.644;9.006;2023-01-25T14:38:48;40.77;;;20.67;;
21905;SDS011;11117;48.644;9.006;2023-01-25T14:43:42;40.97;;;20.67;;
21905;SDS011;11117;48.644;9.006;2023-01-25T14:46:26;44.60;;;22.00;;
21905;SDS011;11117;48.644;9.006;2023-01-25T14:54:18;43.37;;;19.90;;
21905;SDS011;11117;48.644;9.006;2023-01-25T14:56:52;44.60;;;21.60;;
21905;SDS011;11117;48.644;9.006;2023-01-25T14:59:22;42.37;;;21.20;;
21905;SDS011;11117;48.644;9.006;2023-01-25T15:01:51;38.37;;;21.03;;
21905;SDS011;11117;48.644;9.006;2023-01-25T15:04:18;42.67;;;22.17;;
21905;SDS011;11117;48.644;9.006;2023-01-25T15:06:45;47.23;;;22.73;;
21905;SDS011;11117;48.644;9.006;2023-01-25T15:09:28;46.57;;;22.33;;
21905;SDS011;11117;48.644;9.006;2023-01-25T15:11:58;43.73;;;22.33;;
21905;SDS011;11117;48.644;9.006;2023-01-25T15:14:50;44.20;;;21.70;;
21905;SDS011;11117;48.644;9.006;2023-01-25T15:18:02;45.10;;;21.97;;
21905;SDS011;11117;48.644;9.006;2023-01-25T15:23:01;45.50;;;21.67;;
21905;SDS011;11117;48.644;9.006;2023-01-25T15:25:28;49.50;;;25.50;;
21905;SDS011;11117;48.644;9.006;2023-01-25T15:27:53;48.37;;;23.03;;
21905;SDS011;11117;48.644;9.006;2023-01-25T15:30:19;49.10;;;22.87;;
21905;SDS011;11117;48.644;9.006;2023-01-25T15:32:45;48.40;;;23.17;;
21905;SDS011;11117;48.644;9.006;2023-01-25T15:35:14;48.13;;;22.90;;
21905;SDS011;11117;48.644;9.006;2023-01-25T15:37:41;45.33;;;22.50;;
21905;SDS011;11117;48.644;9.006;2023-01-25T15:40:07;49.40;;;23.33;;
21905;SDS011;11117;48.644;9.006;2023-01-25T15:42:33;47.50;;;22.80;;
21905;SDS011;11117;48.644;9.006;2023-01-25T15:44:58;46.93;;;23.70;;
21905;SDS011;11117;48.644;9.006;2023-01-25T15:47:24;49.17;;;24.30;;
21905;SDS011;11117;48.644;9.006;2023-01-25T15:49:59;50.33;;;22.70;;
21905;SDS011;11117;48.644;9.006;2023-01-25T15:52:25;45.77;;;21.83;;
21905;SDS011;11117;48.644;9.006;2023-01-25T15:54:51;48.77;;;23.00;;
21905;SDS011;11117;48.644;9.006;2023-01-25T15:57:22;54.50;;;23.70;;
21905;SDS011;11117;48.644;9.006;2023-01-25T15:59:50;50.80;;;23.80;;
21905;SDS011;11117;48.644;9.006;2023-01-25T16:02:15;54.33;;;26.00;;
21905;SDS011;11117;48.644;9.006;2023-01-25T16:04:41;51.33;;;25.70;;
21905;SDS011;11117;48.644;9.006;2023-01-25T16:07:08;55.97;;;26.03;;
21905;SDS011;11117;48.644;9.006;2023-01-25T16:09:43;53.33;;;24.00;;
21905;SDS011;11117;48.644;9.006;2023-01-25T16:12:08;48.83;;;23.20;;
21905;SDS011;11117;48.644;9.006;2023-01-25T16:14:34;49.83;;;22.80;;
21905;SDS011;11117;48.644;9.006;2023-01-25T16:17:00;52.80;;;23.67;;
21905;SDS011;11117;48.644;9.006;2023-01-25T16:19:27;50.23;;;24.43;;
21905;SDS011;11117;48.644;9.006;2023-01-25T16:21:53;52.23;;;24.57;;
21905;SDS011;11117;48.644;9.006;2023-01-25T16:24:19;53.73;;;23.37;;
21905;SDS011;11117;48.644;9.006;2023-01-25T16:26:54;79.57;;;35.77;;
21905;SDS011;11117;48.644;9.006;2023-01-25T16:29:21;50.97;;;22.37;;
21905;SDS011;11117;48.644;9.006;2023-01-25T16:31:49;49.73;;;22.40;;
21905;SDS011;11117;48.644;9.006;2023-01-25T16:34:35;48.47;;;23.13;;
21905;SDS011;11117;48.644;9.006;2023-01-25T16:37:00;43.67;;;20.23;;
21905;SDS011;11117;48.644;9.006;2023-01-25T16:39:26;43.20;;;20.17;;
21905;SDS011;11117;48.644;9.006;2023-01-25T16:41:51;44.73;;;20.90;;
21905;SDS011;11117;48.644;9.006;2023-01-25T16:44:17;45.90;;;20.70;;
21905;SDS011;11117;48.644;9.006;2023-01-25T16:46:42;46.43;;;21.07;;
21905;SDS011;11117;48.644;9.006;2023-01-25T16:49:13;47.50;;;21.27;;
21905;SDS011;11117;48.644;9.006;2023-01-25T16:51:42;43.80;;;19.90;;
21905;SDS011;11117;48.644;9.006;2023-01-25T16:54:07;44.33;;;19.33;;
21905;SDS011;11117;48.644;9.006;2023-01-25T16:56:35;43.60;;;19.67;;
21905;SDS011;11117;48.644;9.006;2023-01-25T16:59:02;46.87;;;20.23;;
21905;SDS011;11117;48.644;9.006;2023-01-25T17:01:29;44.10;;;19.90;;
21905;SDS011;11117;48.644;9.006;2023-01-25T17:03:55;43.37;;;19.63;;
21905;SDS011;11117;48.644;9.006;2023-01-25T17:06:27;48.60;;;22.70;;
21905;SDS011;11117;48.644;9.006;2023-01-25T17:08:57;50.53;;;26.03;;
21905;SDS011;11117;48.644;9.006;2023-01-25T17:11:24;50.60;;;23.27;;
21905;SDS011;11117;48.644;9.006;2023-01-25T17:13:51;57.13;;;24.90;;
21905;SDS011;11117;48.644;9.006;2023-01-25T17:16:18;46.40;;;21.83;;
21905;SDS011;11117;48.644;9.006;2023-01-25T17:18:45;51.73;;;22.37;;
21905;SDS011;11117;48.644;9.006;2023-01-25T17:21:11;52.50;;;22.37;;
21905;SDS011;11117;48.644;9.006;2023-01-25T17:23:37;51.43;;;23.60;;
21905;SDS011;11117;48.644;9.006;2023-01-25T17:26:04;48.27;;;20.93;;
21905;SDS011;11117;48.644;9.006;2023-01-25T17:28:31;45.57;;;19.97;;
21905;SDS011;11117;48.644;9.006;2023-01-25T17:31:00;47.03;;;20.40;;
21905;SDS011;11117;48.644;9.006;2023-01-25T17:33:26;50.53;;;20.17;;
21905;SDS011;11117;48.644;9.006;2023-01-25T17:35:56;50.00;;;22.13;;
21905;SDS011;11117;48.644;9.006;2023-01-25T17:38:26;49.73;;;21.33;;
21905;SDS011;11117;48.644;9.006;2023-01-25T17:40:52;47.37;;;20.80;;
21905;SDS011;11117;48.644;9.006;2023-01-25T17:43:18;46.70;;;20.03;;
21905;SDS011;11117;48.644;9.006;2023-01-25T17:45:43;49.57;;;21.67;;
21905;SDS011;11117;48.644;9.006;2023-01-25T17:48:09;42.47;;;19.80;;
21905;SDS011;11117;48.644;9.006;2023-01-25T17:50:35;42.43;;;19.53;;
21905;SDS011;11117;48.644;9.006;2023-01-25T17:53:01;39.47;;;17.63;;
21905;SDS011;11117;48.644;9.006;2023-01-25T17:55:33;38.33;;;17.37;;
21905;SDS011;11117;48.644;9.006;2023-01-25T17:57:59;32.27;;;15.67;;
21905;SDS011;11117;48.644;9.006;2023-01-25T18:00:29;35.70;;;16.50;;
21905;SDS011;11117;48.644;9.006;2023-01-25T18:02:54;32.20;;;15.07;;
21905;SDS011;11117;48.644;9.006;2023-01-25T18:05:20;30.83;;;16.03;;
21905;SDS011;11117;48.644;9.006;2023-01-25T18:07:45;33.33;;;16.43;;
21905;SDS011;11117;48.644;9.006;2023-01-25T18:10:11;34.60;;;17.40;;
21905;SDS011;11117;48.644;9.006;2023-01-25T18:12:37;40.53;;;20.83;;
21905;SDS011;11117;48.644;9.006;2023-01-25T18:15:03;37.73;;;20.17;;
21905;SDS011;11117;48.644;9.006;2023-01-25T18:17:31;36.93;;;17.10;;
21905;SDS011;11117;48.644;9.006;2023-01-25T18:19:57;36.37;;;16.33;;
21905;SDS011;11117;48.644;9.006;2023-01-25T18:22:23;32.00;;;15.50;;
21905;SDS011;11117;48.644;9.006;2023-01-25T18:24:48;32.23;;;15.13;;
21905;SDS011;11117;48.644;9.006;2023-01-25T18:27:19;31.87;;;15.53;;
21905;SDS011;11117;48.644;9.006;2023-01-25T18:32:19;35.40;;;17.63;;
21905;SDS011;11117;48.644;9.006;2023-01-25T18:34:44;34.33;;;17.53;;
21905;SDS011;11117;48.644;9.006;2023-01-25T18:37:10;34.80;;;17.23;;
21905;SDS011;11117;48.644;9.006;2023-01-25T18:39:35;34.17;;;16.43;;
21905;SDS011;11117;48.644;9.006;2023-01-25T18:42:01;33.30;;;15.53;;
21905;SDS011;11117;48.644;9.006;2023-01-25T18:44:26;33.10;;;16.17;;
21905;SDS011;11117;48.644;9.006;2023-01-25T18:46:54;31.87;;;15.23;;
21905;SDS011;11117;48.644;9.006;2023-01-25T18:49:20;34.47;;;16.37;;
21905;SDS011;11117;48.644;9.006;2023-01-25T18:51:45;30.60;;;14.93;;
21905;SDS011;11117;48.644;9.006;2023-01-25T18:54:11;33.83;;;16.10;;
21905;SDS011;11117;48.644;9.006;2023-01-25T18:56:39;33.13;;;16.23;;
21905;SDS011;11117;48.644;9.006;2023-01-25T18:59:04;34.53;;;17.30;;
21905;SDS011;11117;48.644;9.006;2023-01-25T19:01:30;35.40;;;17.17;;
21905;SDS011;11117;48.644;9.006;2023-01-25T19:03:55;41.47;;;21.00;;
21905;SDS011;11117;48.644;9.006;2023-01-25T19:06:22;47.50;;;22.33;;
21905;SDS011;11117;48.644;9.006;2023-01-25T19:08:51;44.87;;;21.93;;
21905;SDS011;11117;48.644;9.006;2023-01-25T19:11:17;37.27;;;17.70;;
21905;SDS011;11117;48.644;9.006;2023-01-25T19:13:43;34.23;;;17.37;;
21905;SDS011;11117;48.644;9.006;2023-01-25T19:16:10;37.50;;;17.00;;
21905;SDS011;11117;48.644;9.006;2023-01-25T19:18:44;34.20;;;17.43;;
21905;SDS011;11117;48.644;9.006;2023-01-25T19:21:11;35.87;;;16.27;;
21905;SDS011;11117;48.644;9.006;2023-01-25T19:23:39;33.03;;;16.60;;
21905;SDS011;11117;48.644;9.006;2023-01-25T19:26:05;39.37;;;19.23;;
21905;SDS011;11117;48.644;9.006;2023-01-25T19:28:34;38.50;;;19.27;;
21905;SDS011;11117;48.644;9.006;2023-01-25T19:31:33;39.43;;;18.37;;
21905;SDS011;11117;48.644;9.006;2023-01-25T19:41:57;38.07;;;17.37;;
21905;SDS011;11117;48.644;9.006;2023-01-25T19:44:23;35.03;;;16.13;;
21905;SDS011;11117;48.644;9.006;2023-01-25T19:46:49;35.90;;;17.77;;
21905;SDS011;11117;48.644;9.006;2023-01-25T19:49:14;35.87;;;16.87;;
21905;SDS011;11117;48.644;9.006;2023-01-25T19:51:40;33.83;;;17.00;;
21905;SDS011;11117;48.644;9.006;2023-01-25T19:54:09;38.63;;;17.27;;
21905;SDS011;11117;48.644;9.006;2023-01-25T19:56:37;40.20;;;16.93;;
21905;SDS011;11117;48.644;9.006;2023-01-25T19:59:11;35.77;;;17.90;;
21905;SDS011;11117;48.644;9.006;2023-01-25T20:01:39;36.83;;;17.13;;
21905;SDS011;11117;48.644;9.006;2023-01-25T20:04:05;36.30;;;17.57;;
21905;SDS011;11117;48.644;9.006;2023-01-25T20:06:31;37.13;;;17.13;;
21905;SDS011;11117;48.644;9.006;2023-01-25T20:08:57;42.57;;;19.07;;
21905;SDS011;11117;48.644;9.006;2023-01-25T20:11:25;37.50;;;16.70;;
21905;SDS011;11117;48.644;9.006;2023-01-25T20:13:54;36.40;;;17.33;;
21905;SDS011;11117;48.644;9.006;2023-01-25T20:16:22;34.90;;;17.37;;
21905;SDS011;11117;48.644;9.006;2023-01-25T20:18:48;43.37;;;18.20;;
21905;SDS011;11117;48.644;9.006;2023-01-25T20:21:14;37.57;;;17.97;;